createdAt,value
2023-02-24T00:01:00.542Z,55.20
2023-02-24T00:03:27.280Z,54.92
2023-02-24T00:05:54.002Z,53.50
2023-02-24T00:08:20.767Z,52.97
2023-02-24T00:10:47.492Z,52.28
2023-02-24T00:13:15.594Z,53.33
2023-02-24T00:15:42.267Z,53.80
2023-02-24T00:18:08.975Z,54.17
2023-02-24T00:20:35.644Z,53.85
2023-02-24T00:23:02.403Z,49.63
2023-02-24T00:25:29.138Z,53.53
2023-02-24T00:27:55.839Z,54.30
2023-02-24T00:30:23.921Z,51.72
2023-02-24T00:32:50.772Z,50.60
2023-02-24T00:35:17.592Z,48.13
2023-02-24T00:37:44.336Z,48.20
2023-02-24T00:40:12.354Z,47.35
2023-02-24T00:42:39.076Z,47.97
2023-02-24T00:45:07.265Z,49.10
2023-02-24T00:47:38.690Z,49.22
2023-02-24T00:50:06.420Z,48.63
2023-02-24T00:52:33.126Z,49.22
2023-02-24T00:54:59.862Z,50.33
2023-02-24T00:57:26.604Z,50.10
2023-02-24T00:59:53.309Z,50.58
2023-02-24T01:02:20.256Z,50.55
2023-02-24T01:04:48.373Z,52.17
2023-02-24T01:07:15.051Z,50.78
2023-02-24T01:09:42.111Z,51.00
2023-02-24T01:12:10.591Z,50.20
2023-02-24T01:14:37.320Z,50.60
2023-02-24T01:17:04.795Z,50.10
2023-02-24T01:19:33.061Z,49.65
2023-02-24T01:22:04.174Z,49.90
2023-02-24T01:24:33.475Z,48.47
2023-02-24T01:27:00.335Z,48.63
2023-02-24T01:29:27.025Z,47.63
2023-02-24T01:31:54.321Z,46.28
2023-02-24T01:34:21.095Z,45.20
2023-02-24T01:36:47.875Z,45.92
2023-02-24T01:39:15.945Z,47.78
2023-02-24T01:41:44.876Z,47.63
2023-02-24T01:44:44.639Z,47.97
2023-02-24T01:47:12.332Z,48.03
2023-02-24T01:49:42.825Z,47.63
2023-02-24T01:52:13.545Z,46.97
2023-02-24T01:54:46.343Z,47.13
2023-02-24T01:57:17.160Z,48.30
2023-02-24T01:59:46.483Z,49.33
2023-02-24T02:02:15.322Z,49.00
2023-02-24T02:04:46.291Z,48.72
2023-02-24T02:07:15.512Z,49.13
2023-02-24T02:09:45.516Z,48.65
2023-02-24T02:12:13.019Z,48.27
2023-02-24T02:14:43.636Z,49.30
2023-02-24T02:17:22.054Z,49.58
2023-02-24T02:20:19.415Z,49.78
2023-02-24T02:23:31.138Z,49.08
2023-02-24T02:26:19.938Z,47.25
2023-02-24T02:29:08.889Z,45.00
2023-02-24T02:31:56.766Z,44.67
2023-02-24T02:34:36.861Z,44.00
2023-02-24T02:37:10.389Z,44.40
2023-02-24T02:39:48.960Z,44.72
2023-02-24T02:42:25.394Z,47.72
2023-02-24T02:44:59.366Z,46.72
2023-02-24T02:47:31.232Z,46.50
2023-02-24T02:50:06.603Z,44.85
2023-02-24T02:52:38.188Z,45.80
2023-02-24T02:55:09.828Z,46.53
2023-02-24T02:57:40.029Z,47.77
2023-02-24T03:00:12.780Z,47.88
2023-02-24T03:02:43.293Z,49.45
2023-02-24T03:05:15.537Z,47.22
2023-02-24T03:07:47.738Z,45.67
2023-02-24T03:10:17.698Z,45.40
2023-02-24T03:12:46.888Z,46.60
2023-02-24T03:15:15.604Z,46.05
2023-02-24T03:17:45.493Z,46.30
2023-02-24T03:20:18.845Z,47.08
2023-02-24T03:22:49.622Z,45.40
2023-02-24T03:25:16.601Z,46.33
2023-02-24T03:27:47.042Z,44.95
2023-02-24T03:30:18.711Z,44.22
2023-02-24T03:32:51.651Z,44.70
2023-02-24T03:35:22.578Z,46.00
2023-02-24T03:37:49.928Z,45.50
2023-02-24T03:40:17.678Z,45.42
2023-02-24T03:42:48.253Z,44.22
2023-02-24T03:45:15.892Z,44.63
2023-02-24T03:47:43.344Z,45.40
2023-02-24T03:50:13.414Z,44.78
2023-02-24T03:52:47.440Z,44.65
2023-02-24T03:55:26.540Z,44.38
2023-02-24T03:58:03.826Z,44.92
2023-02-24T04:00:38.537Z,44.63
2023-02-24T04:03:13.904Z,43.70
2023-02-24T04:05:48.713Z,43.70
2023-02-24T04:08:21.222Z,44.55
2023-02-24T04:10:53.418Z,43.47
2023-02-24T04:13:27.989Z,42.80
2023-02-24T04:16:00.839Z,44.40
2023-02-24T04:18:31.417Z,44.75
2023-02-24T04:21:01.757Z,45.03
2023-02-24T04:23:32.571Z,42.97
2023-02-24T04:26:00.276Z,41.93
2023-02-24T04:28:28.691Z,41.78
2023-02-24T04:31:00.493Z,42.78
2023-02-24T04:33:27.698Z,43.42
2023-02-24T04:35:54.671Z,44.78
2023-02-24T04:38:21.590Z,40.90
2023-02-24T04:40:49.853Z,41.88
2023-02-24T04:43:16.821Z,41.55
2023-02-24T04:45:43.523Z,43.47
2023-02-24T04:48:10.714Z,41.40
2023-02-24T04:50:37.478Z,42.03
2023-02-24T04:53:06.687Z,40.00
2023-02-24T04:55:36.671Z,39.13
2023-02-24T04:58:04.734Z,41.35
2023-02-24T05:00:31.556Z,40.83
2023-02-24T05:02:58.295Z,39.25
2023-02-24T05:05:25.674Z,38.22
2023-02-24T05:07:52.802Z,39.35
2023-02-24T05:10:19.729Z,38.33
2023-02-24T05:12:46.438Z,38.60
2023-02-24T05:15:14.546Z,37.22
2023-02-24T05:17:41.238Z,38.37
2023-02-24T05:20:09.781Z,37.80
2023-02-24T05:22:36.466Z,39.87
2023-02-24T05:25:03.240Z,37.42
2023-02-24T05:27:29.956Z,38.97
2023-02-24T05:29:56.655Z,36.83
2023-02-24T05:32:24.842Z,35.10
2023-02-24T05:34:51.630Z,36.38
2023-02-24T05:37:18.389Z,36.00
2023-02-24T05:39:47.069Z,36.88
2023-02-24T05:42:13.757Z,35.88
2023-02-24T05:44:40.414Z,35.08
2023-02-24T05:47:07.167Z,35.10
2023-02-24T05:49:35.692Z,34.30
2023-02-24T05:52:04.882Z,34.53
2023-02-24T05:54:34.345Z,35.35
2023-02-24T05:57:03.113Z,35.28
2023-02-24T05:59:30.174Z,36.05
2023-02-24T06:01:56.882Z,35.53
2023-02-24T06:04:23.567Z,36.13
2023-02-24T06:06:51.628Z,33.90
2023-02-24T06:09:19.842Z,35.53
2023-02-24T06:11:46.551Z,35.23
2023-02-24T06:14:13.320Z,33.88
2023-02-24T06:16:41.741Z,35.72
2023-02-24T06:19:10.127Z,34.22
2023-02-24T06:21:38.787Z,36.83
2023-02-24T06:24:10.513Z,35.45
2023-02-24T06:26:37.202Z,36.83
2023-02-24T06:29:03.986Z,35.67
2023-02-24T06:31:30.824Z,35.20
2023-02-24T06:33:57.986Z,36.80
2023-02-24T06:36:37.592Z,36.05
2023-02-24T06:39:06.502Z,35.25
2023-02-24T06:41:34.403Z,34.28
2023-02-24T06:44:01.148Z,32.85
2023-02-24T06:46:28.097Z,32.88
2023-02-24T06:48:55.269Z,32.00
2023-02-24T06:51:22.237Z,32.50
2023-02-24T06:53:50.540Z,33.20
2023-02-24T06:56:32.449Z,32.40
2023-02-24T07:58:44.630Z,33.40
2023-02-24T08:01:16.047Z,32.78
2023-02-24T08:03:47.743Z,31.92
2023-02-24T08:06:14.473Z,31.45
2023-02-24T08:16:35.447Z,29.25
2023-02-24T08:19:02.104Z,26.85
2023-02-24T08:21:28.769Z,24.95
2023-02-24T08:23:55.477Z,26.02
2023-02-24T08:26:22.189Z,26.92
2023-02-24T08:28:48.920Z,23.23
2023-02-24T08:31:15.695Z,26.70
2023-02-24T08:33:43.857Z,24.73
2023-02-24T08:36:10.493Z,23.43
2023-02-24T08:38:37.355Z,23.13
2023-02-24T08:41:04.302Z,23.52
2023-02-24T08:43:37.284Z,23.63
2023-02-24T08:46:14.216Z,23.58
2023-02-24T08:48:44.469Z,22.08
2023-02-24T08:51:14.023Z,21.55
2023-02-24T08:53:40.888Z,22.85
2023-02-24T08:56:09.840Z,21.85
2023-02-24T08:58:36.668Z,20.25
2023-02-24T09:01:03.646Z,20.90
2023-02-24T09:03:30.423Z,21.47
2023-02-24T09:06:00.818Z,21.35
2023-02-24T09:08:27.541Z,20.52
2023-02-24T09:10:54.210Z,19.90
2023-02-24T09:13:20.923Z,21.08
2023-02-24T09:15:48.078Z,20.08
2023-02-24T09:18:14.913Z,18.52
2023-02-24T09:20:41.662Z,18.48
2023-02-24T09:23:12.681Z,18.35
2023-02-24T09:25:39.842Z,19.55
2023-02-24T09:28:08.557Z,18.50
2023-02-24T09:30:36.899Z,18.65
2023-02-24T09:33:09.049Z,18.17
2023-02-24T09:35:35.850Z,18.93
2023-02-24T09:38:03.768Z,17.58
2023-02-24T09:40:33.056Z,16.95
2023-02-24T09:42:59.831Z,17.63
2023-02-24T09:45:26.912Z,18.17
2023-02-24T09:47:54.489Z,17.80
2023-02-24T09:50:55.570Z,16.77
2023-02-24T09:53:17.456Z,17.90
2023-02-24T09:55:54.020Z,18.20
2023-02-24T09:58:43.457Z,18.23
2023-02-24T10:01:23.755Z,18.88
2023-02-24T10:03:56.327Z,18.30
2023-02-24T10:06:26.402Z,18.10
2023-02-24T10:08:57.796Z,17.55
2023-02-24T10:11:29.382Z,17.70
2023-02-24T10:14:03.536Z,18.05
2023-02-24T10:16:32.188Z,18.53
2023-02-24T10:19:05.563Z,19.25
2023-02-24T10:21:39.217Z,18.20
2023-02-24T10:24:16.064Z,18.55
2023-02-24T10:27:00.922Z,18.40
2023-02-24T10:29:50.593Z,15.95
2023-02-24T10:32:27.664Z,16.75
2023-02-24T10:34:54.608Z,15.88
2023-02-24T10:37:28.667Z,15.50
2023-02-24T10:39:57.472Z,16.17
2023-02-24T10:42:27.411Z,15.82
2023-02-24T10:45:17.344Z,15.85
2023-02-24T10:47:49.551Z,15.00
2023-02-24T10:50:21.859Z,13.05
2023-02-24T10:52:49.103Z,15.00
2023-02-24T10:55:24.365Z,12.27
2023-02-24T10:57:58.940Z,9.32
2023-02-24T11:00:28.342Z,9.00
2023-02-24T11:02:55.321Z,8.80
2023-02-24T11:05:23.089Z,8.48
2023-02-24T11:07:49.871Z,8.55
2023-02-24T11:10:18.764Z,8.30
2023-02-24T11:12:47.302Z,8.77
2023-02-24T11:15:21.910Z,9.00
2023-02-24T11:17:50.741Z,8.17
2023-02-24T11:20:33.647Z,8.00
2023-02-24T11:23:09.062Z,8.20
2023-02-24T11:25:37.537Z,8.10
2023-02-24T11:28:04.387Z,8.60
2023-02-24T11:30:42.240Z,7.80
2023-02-24T11:33:27.997Z,7.88
2023-02-24T11:36:03.626Z,7.70
2023-02-24T11:38:39.207Z,7.85
2023-02-24T11:41:15.436Z,8.03
2023-02-24T11:43:48.781Z,8.10
2023-02-24T11:46:20.156Z,8.17
2023-02-24T11:48:51.401Z,7.65
2023-02-24T11:51:20.863Z,8.20
2023-02-24T11:53:50.920Z,8.00
2023-02-24T11:56:22.769Z,7.80
2023-02-24T11:58:57.535Z,7.85
2023-02-24T12:01:31.350Z,8.70
2023-02-24T12:04:10.579Z,8.10
2023-02-24T12:06:41.389Z,7.80
2023-02-24T12:09:13.707Z,7.87
2023-02-24T12:11:47.237Z,7.83
2023-02-24T12:14:21.581Z,7.80
2023-02-24T12:16:56.667Z,8.45
2023-02-24T12:19:28.982Z,7.68
2023-02-24T12:22:01.518Z,7.57
2023-02-24T12:24:28.837Z,8.45
2023-02-24T12:27:03.735Z,7.95
2023-02-24T12:29:46.937Z,7.72
2023-02-24T12:32:24.163Z,7.95
2023-02-24T12:35:01.283Z,7.72
2023-02-24T12:37:52.783Z,7.80
2023-02-24T12:40:30.916Z,7.57
2023-02-24T12:43:11.566Z,7.97
2023-02-24T12:45:48.173Z,7.90
2023-02-24T12:48:31.918Z,8.07
2023-02-24T12:51:05.871Z,8.13
2023-02-24T12:53:43.752Z,7.50
2023-02-24T12:56:18.179Z,7.00
2023-02-24T12:58:47.971Z,6.20
2023-02-24T13:01:22.290Z,6.70
2023-02-24T13:04:07.257Z,6.10
2023-02-24T13:06:52.650Z,6.20
2023-02-24T13:09:28.241Z,4.95
2023-02-24T13:12:01.402Z,4.80
2023-02-24T13:14:31.818Z,4.90
2023-02-24T13:17:18.622Z,5.10
2023-02-24T13:19:48.195Z,5.40
2023-02-24T13:22:25.752Z,6.00
2023-02-24T13:25:04.903Z,5.30
2023-02-24T13:27:34.967Z,5.10
2023-02-24T13:30:06.883Z,4.95
2023-02-24T13:32:36.856Z,5.80
2023-02-24T13:35:26.920Z,5.43
2023-02-24T13:37:54.394Z,5.22
2023-02-24T13:40:24.954Z,4.85
2023-02-24T13:43:00.031Z,5.00
2023-02-24T13:45:28.533Z,4.70
2023-02-24T13:48:23.109Z,5.03
2023-02-24T13:51:08.162Z,4.68
2023-02-24T13:53:50.944Z,4.53
2023-02-24T13:56:30.842Z,4.68
2023-02-24T13:59:14.344Z,4.60
2023-02-24T14:01:50.006Z,4.53
2023-02-24T14:04:20.636Z,4.40
2023-02-24T14:06:52.384Z,4.30
2023-02-24T14:09:23.736Z,4.13
2023-02-24T14:11:54.834Z,4.70
2023-02-24T14:14:22.079Z,4.30
2023-02-24T14:16:50.920Z,4.18
2023-02-24T14:19:17.845Z,4.50
2023-02-24T14:21:51.074Z,4.28
2023-02-24T14:24:18.714Z,4.35
2023-02-24T14:26:47.801Z,4.50
2023-02-24T14:29:18.987Z,4.57
2023-02-24T14:31:48.666Z,4.95
2023-02-24T14:34:19.933Z,5.05
2023-02-24T14:36:48.288Z,4.70
2023-02-24T14:39:21.218Z,5.22
2023-02-24T14:41:49.172Z,4.57
2023-02-24T14:44:22.435Z,5.10
2023-02-24T14:46:51.674Z,5.18
2023-02-24T14:49:23.876Z,5.57
2023-02-24T14:51:57.936Z,5.47
2023-02-24T14:54:38.665Z,5.63
2023-02-24T14:57:06.319Z,5.50
2023-02-24T14:59:37.149Z,5.60
2023-02-24T15:02:05.114Z,5.68
2023-02-24T15:04:35.744Z,5.60
2023-02-24T15:07:05.479Z,5.78
2023-02-24T15:09:40.137Z,5.90
2023-02-24T15:12:17.005Z,5.85
2023-02-24T15:14:50.116Z,5.90
2023-02-24T15:17:19.718Z,5.78
2023-02-24T15:19:46.492Z,5.65
2023-02-24T15:22:21.959Z,5.40
2023-02-24T15:24:51.467Z,5.68
2023-02-24T15:27:25.519Z,5.35
2023-02-24T15:30:01.018Z,5.38
2023-02-24T15:32:31.734Z,5.90
2023-02-24T15:34:58.896Z,5.63
2023-02-24T15:37:27.691Z,5.80
2023-02-24T15:40:07.194Z,5.65
2023-02-24T15:42:35.364Z,5.72
2023-02-24T15:45:05.077Z,5.68
2023-02-24T15:47:42.254Z,6.30
2023-02-24T15:50:10.348Z,5.93
2023-02-24T15:52:37.457Z,6.38
2023-02-24T15:55:06.942Z,6.40
2023-02-24T15:57:34.145Z,6.87
2023-02-24T16:00:00.871Z,6.83
2023-02-24T16:02:28.306Z,7.18
2023-02-24T16:04:54.982Z,7.55
2023-02-24T16:07:24.060Z,8.63
2023-02-24T16:09:52.992Z,8.20
2023-02-24T16:12:24.019Z,7.78
2023-02-24T16:14:51.182Z,8.13
2023-02-24T16:17:26.400Z,7.95
2023-02-24T16:19:53.082Z,8.52
2023-02-24T16:22:19.817Z,7.97
2023-02-24T16:24:46.559Z,8.45
2023-02-24T16:27:16.134Z,8.18
2023-02-24T16:29:44.247Z,8.43
2023-02-24T16:32:12.713Z,9.02
2023-02-24T16:34:39.960Z,8.35
2023-02-24T16:37:16.513Z,8.35
2023-02-24T16:39:43.218Z,8.50
2023-02-24T16:42:11.808Z,8.95
2023-02-24T16:44:38.902Z,8.73
2023-02-24T16:47:08.169Z,8.83
2023-02-24T16:49:35.036Z,9.30
2023-02-24T16:52:01.685Z,8.40
2023-02-24T16:54:28.373Z,8.70
2023-02-24T16:56:55.105Z,9.07
2023-02-24T16:59:21.859Z,8.63
2023-02-24T17:01:48.608Z,8.80
2023-02-24T17:04:16.728Z,8.77
2023-02-24T17:06:43.450Z,9.10
2023-02-24T17:09:10.229Z,9.27
2023-02-24T17:11:36.907Z,8.40
2023-02-24T17:14:03.575Z,8.15
2023-02-24T17:16:30.341Z,8.10
2023-02-24T17:18:57.053Z,7.80
2023-02-24T17:21:29.199Z,8.50
2023-02-24T17:23:56.869Z,8.48
2023-02-24T17:26:24.073Z,8.57
2023-02-24T17:28:50.947Z,8.73
2023-02-24T17:31:17.797Z,8.23
2023-02-24T17:33:44.850Z,8.38
2023-02-24T17:36:13.771Z,8.82
2023-02-24T17:38:42.031Z,9.90
2023-02-24T17:41:27.177Z,9.13
2023-02-24T17:43:54.605Z,9.75
2023-02-24T17:46:21.937Z,9.95
2023-02-24T17:48:48.911Z,9.80
2023-02-24T17:51:16.503Z,9.52
2023-02-24T17:53:45.175Z,9.63
2023-02-24T17:56:12.109Z,10.13
2023-02-24T17:58:39.431Z,9.88
2023-02-24T18:01:06.953Z,9.88
2023-02-24T18:03:34.483Z,10.95
2023-02-24T18:06:03.291Z,11.00
2023-02-24T18:08:30.451Z,11.20
2023-02-24T18:10:59.104Z,9.52
2023-02-24T18:13:26.276Z,10.40
2023-02-24T18:15:53.337Z,9.60
2023-02-24T18:18:20.238Z,10.38
2023-02-24T18:20:47.010Z,12.48
2023-02-24T18:23:14.526Z,11.85
2023-02-24T18:25:41.255Z,11.60
2023-02-24T18:28:09.520Z,11.32
2023-02-24T18:30:38.667Z,9.85
2023-02-24T18:33:05.660Z,8.95
2023-02-24T18:35:32.646Z,9.68
2023-02-24T18:37:59.421Z,9.27
2023-02-24T18:40:27.362Z,8.70
2023-02-24T18:42:54.459Z,8.25
2023-02-24T18:45:23.549Z,8.43
2023-02-24T18:47:51.957Z,9.13
2023-02-24T18:50:19.020Z,9.27
2023-02-24T18:52:45.762Z,9.32
2023-02-24T18:55:12.423Z,9.68
2023-02-24T18:57:39.110Z,8.73
2023-02-24T19:00:07.188Z,8.57
2023-02-24T19:02:35.305Z,8.43
2023-02-24T19:05:02.147Z,8.98
2023-02-24T19:07:28.825Z,9.13
2023-02-24T19:09:55.573Z,8.55
2023-02-24T19:12:22.281Z,8.90
2023-02-24T19:14:51.243Z,8.30
2023-02-24T19:17:19.029Z,8.38
2023-02-24T19:19:47.187Z,8.43
2023-02-24T19:22:13.949Z,8.40
2023-02-24T19:24:40.666Z,8.90
2023-02-24T19:27:07.449Z,8.00
2023-02-24T19:29:34.108Z,8.60
2023-02-24T19:32:01.036Z,8.57
2023-02-24T19:34:27.808Z,8.40
2023-02-24T19:36:55.927Z,7.97
2023-02-24T19:39:22.618Z,8.35
2023-02-24T19:41:50.006Z,7.75
2023-02-24T19:44:16.901Z,7.00
2023-02-24T19:46:43.619Z,8.18
2023-02-24T19:49:10.299Z,7.90
2023-02-24T19:51:37.085Z,8.60
2023-02-24T19:54:05.504Z,7.70
2023-02-24T19:56:34.213Z,7.72
2023-02-24T19:59:01.944Z,7.88
2023-02-24T20:01:29.503Z,7.70
2023-02-24T20:03:57.709Z,8.23
2023-02-24T20:06:26.798Z,7.88
2023-02-24T20:08:54.380Z,8.13
2023-02-24T20:11:23.651Z,7.60
2023-02-24T20:13:52.010Z,7.90
2023-02-24T20:16:20.384Z,8.05
2023-02-24T20:18:47.226Z,8.68
2023-02-24T20:21:13.997Z,8.27
2023-02-24T20:23:41.137Z,8.80
2023-02-24T20:26:10.098Z,8.30
2023-02-24T20:28:38.224Z,7.57
2023-02-24T20:31:08.499Z,7.82
2023-02-24T20:33:35.836Z,9.25
2023-02-24T20:36:07.786Z,8.80
2023-02-24T20:38:34.558Z,8.60
2023-02-24T20:41:01.480Z,8.73
2023-02-24T20:43:28.467Z,7.97
2023-02-24T20:45:56.675Z,8.77
2023-02-24T20:48:24.023Z,8.10
2023-02-24T20:50:51.395Z,8.50
2023-02-24T20:53:18.228Z,7.90
2023-02-24T20:55:45.100Z,8.50
2023-02-24T20:58:14.155Z,8.18
2023-02-24T21:00:41.086Z,8.30
2023-02-24T21:03:09.371Z,8.13
2023-02-24T21:05:36.191Z,8.27
2023-02-24T21:08:03.254Z,7.55
2023-02-24T21:10:29.968Z,8.13
2023-02-24T21:12:56.791Z,7.88
2023-02-24T21:15:23.607Z,7.65
2023-02-24T21:17:50.546Z,7.10
2023-02-24T21:20:19.067Z,6.75
2023-02-24T21:22:45.950Z,7.00
2023-02-24T21:25:12.800Z,6.60
2023-02-24T21:27:39.722Z,7.45
2023-02-24T21:30:08.220Z,6.55
2023-02-24T21:32:35.767Z,6.13
2023-02-24T21:35:02.559Z,6.97
2023-02-24T21:37:30.682Z,6.85
2023-02-24T21:39:59.564Z,7.18
2023-02-24T21:42:26.300Z,6.78
2023-02-24T21:44:53.019Z,7.22
2023-02-24T21:47:19.957Z,6.93
2023-02-24T21:49:48.235Z,7.82
2023-02-24T21:52:14.897Z,7.10
2023-02-24T21:54:42.995Z,7.45
2023-02-24T21:57:09.681Z,6.88
2023-02-24T21:59:36.343Z,6.72
2023-02-24T22:02:03.249Z,7.10
2023-02-24T22:04:30.034Z,6.97
2023-02-24T22:06:56.736Z,6.60
2023-02-24T22:09:23.457Z,7.60
2023-02-24T22:11:51.549Z,7.60
2023-02-24T22:14:18.323Z,7.03
2023-02-24T22:16:45.131Z,6.70
2023-02-24T22:19:12.486Z,6.47
2023-02-24T22:21:40.741Z,6.68
2023-02-24T22:24:08.842Z,6.05
2023-02-24T22:26:35.619Z,6.88
2023-02-24T22:29:03.895Z,6.43
2023-02-24T22:31:32.560Z,6.53
2023-02-24T22:33:59.609Z,7.23
2023-02-24T22:36:28.352Z,7.30
2023-02-24T22:38:56.469Z,7.60
2023-02-24T22:41:25.443Z,7.50
2023-02-24T22:43:52.208Z,7.68
2023-02-24T22:46:23.301Z,6.13
2023-02-24T22:48:50.488Z,6.63
2023-02-24T22:51:17.945Z,6.35
2023-02-24T22:53:47.902Z,6.07
2023-02-24T22:56:16.741Z,7.28
2023-02-24T22:58:43.900Z,6.30
2023-02-24T23:01:11.871Z,6.05
2023-02-24T23:03:40.280Z,6.57
2023-02-24T23:06:08.879Z,6.40
2023-02-24T23:08:38.454Z,6.70
2023-02-24T23:13:33.431Z,7.20
2023-02-24T23:16:01.197Z,7.07
2023-02-24T23:18:27.928Z,7.00
2023-02-24T23:20:58.825Z,7.18
2023-02-24T23:23:25.996Z,7.03
2023-02-24T23:25:52.843Z,7.15
2023-02-24T23:28:19.722Z,7.18
2023-02-24T23:30:46.853Z,7.13
2023-02-24T23:33:13.736Z,6.35
2023-02-24T23:35:40.441Z,7.50
2023-02-24T23:38:09.516Z,6.68
2023-02-24T23:40:49.672Z,7.25
2023-02-24T23:43:17.221Z,7.18
2023-02-24T23:45:44.057Z,6.68
2023-02-24T23:48:12.628Z,7.47
2023-02-24T23:50:40.762Z,6.53
2023-02-24T23:53:09.161Z,6.85
2023-02-24T23:55:38.269Z,6.30
2023-02-24T23:58:05.382Z,6.70
